Terminal Aerodrome Forecast
Issued by NWS

Home | Current Version | Previous Version | Text Only | Print | Product List | Glossary On
Versions: 1 2 3 4 5 6 7 8 9 10 11 12 13 14
000
FTUS43 KEAX 281100
TAFMKC
TAF
KMKC 281120Z 2812/2912 12006KT P6SM BKN150
     FM281400 17008KT P6SM BKN150
     FM281800 17006KT P6SM BKN060
     FM290800 19007KT P6SM VCTS BKN060CB=

USA.gov is the U.S. government's official web portal to all federal, state and local government web resources and services.